sensor_id;sensor_type;location;lat;lon;timestamp;P1;durP1;ratioP1;P2;durP2;ratioP2
2486;SDS011;1254;49.144;8.212;2023-07-20T00:02:18;3.10;;;2.83;;
2486;SDS011;1254;49.144;8.212;2023-07-20T00:04:46;4.30;;;3.30;;
2486;SDS011;1254;49.144;8.212;2023-07-20T00:07:16;7.10;;;4.20;;
2486;SDS011;1254;49.144;8.212;2023-07-20T00:09:44;5.90;;;3.27;;
2486;SDS011;1254;49.144;8.212;2023-07-20T00:12:14;3.67;;;3.07;;
2486;SDS011;1254;49.144;8.212;2023-07-20T00:14:42;3.30;;;2.63;;
2486;SDS011;1254;49.144;8.212;2023-07-20T00:17:10;5.97;;;3.40;;
2486;SDS011;1254;49.144;8.212;2023-07-20T00:19:38;3.20;;;2.77;;
2486;SDS011;1254;49.144;8.212;2023-07-20T00:22:06;2.70;;;2.50;;
2486;SDS011;1254;49.144;8.212;2023-07-20T00:24:36;2.80;;;2.67;;
2486;SDS011;1254;49.144;8.212;2023-07-20T00:27:04;3.23;;;3.03;;
2486;SDS011;1254;49.144;8.212;2023-07-20T00:29:32;3.90;;;3.30;;
2486;SDS011;1254;49.144;8.212;2023-07-20T00:32:02;3.23;;;3.03;;
2486;SDS011;1254;49.144;8.212;2023-07-20T00:34:32;2.73;;;2.63;;
2486;SDS011;1254;49.144;8.212;2023-07-20T00:37:00;3.27;;;3.00;;
2486;SDS011;1254;49.144;8.212;2023-07-20T00:39:28;3.20;;;3.00;;
2486;SDS011;1254;49.144;8.212;2023-07-20T00:41:59;3.10;;;2.80;;
2486;SDS011;1254;49.144;8.212;2023-07-20T00:44:27;2.67;;;2.47;;
2486;SDS011;1254;49.144;8.212;2023-07-20T00:46:56;2.83;;;2.63;;
2486;SDS011;1254;49.144;8.212;2023-07-20T00:49:24;14.03;;;3.23;;
2486;SDS011;1254;49.144;8.212;2023-07-20T00:51:52;3.20;;;2.80;;
2486;SDS011;1254;49.144;8.212;2023-07-20T00:54:20;5.33;;;2.60;;
2486;SDS011;1254;49.144;8.212;2023-07-20T00:56:49;2.93;;;2.73;;
2486;SDS011;1254;49.144;8.212;2023-07-20T00:59:19;3.10;;;2.73;;
2486;SDS011;1254;49.144;8.212;2023-07-20T01:01:49;2.73;;;2.50;;
2486;SDS011;1254;49.144;8.212;2023-07-20T01:04:17;3.17;;;2.87;;
2486;SDS011;1254;49.144;8.212;2023-07-20T01:06:48;2.50;;;2.40;;
2486;SDS011;1254;49.144;8.212;2023-07-20T01:09:18;3.00;;;2.80;;
2486;SDS011;1254;49.144;8.212;2023-07-20T01:11:49;3.10;;;2.87;;
2486;SDS011;1254;49.144;8.212;2023-07-20T01:14:20;3.13;;;2.30;;
2486;SDS011;1254;49.144;8.212;2023-07-20T01:16:49;4.10;;;2.30;;
2486;SDS011;1254;49.144;8.212;2023-07-20T01:19:18;3.57;;;2.33;;
2486;SDS011;1254;49.144;8.212;2023-07-20T01:21:48;2.60;;;2.40;;
2486;SDS011;1254;49.144;8.212;2023-07-20T01:27:22;3.57;;;2.40;;
2486;SDS011;1254;49.144;8.212;2023-07-20T01:30:00;2.90;;;2.70;;
2486;SDS011;1254;49.144;8.212;2023-07-20T01:32:32;3.03;;;2.77;;
2486;SDS011;1254;49.144;8.212;2023-07-20T01:35:01;2.30;;;2.20;;
2486;SDS011;1254;49.144;8.212;2023-07-20T01:37:30;3.17;;;2.37;;
2486;SDS011;1254;49.144;8.212;2023-07-20T01:39:59;2.83;;;2.53;;
2486;SDS011;1254;49.144;8.212;2023-07-20T01:42:28;2.43;;;2.33;;
2486;SDS011;1254;49.144;8.212;2023-07-20T01:44:56;2.70;;;2.30;;
2486;SDS011;1254;49.144;8.212;2023-07-20T01:47:24;2.80;;;2.60;;
2486;SDS011;1254;49.144;8.212;2023-07-20T01:49:54;4.10;;;2.20;;
2486;SDS011;1254;49.144;8.212;2023-07-20T01:52:22;3.13;;;2.70;;
2486;SDS011;1254;49.144;8.212;2023-07-20T01:54:50;2.93;;;2.73;;
2486;SDS011;1254;49.144;8.212;2023-07-20T01:57:19;5.13;;;2.47;;
2486;SDS011;1254;49.144;8.212;2023-07-20T01:59:47;2.70;;;2.47;;
2486;SDS011;1254;49.144;8.212;2023-07-20T02:02:15;3.30;;;2.80;;
2486;SDS011;1254;49.144;8.212;2023-07-20T02:04:45;4.70;;;2.50;;
2486;SDS011;1254;49.144;8.212;2023-07-20T02:07:15;2.60;;;2.40;;
2486;SDS011;1254;49.144;8.212;2023-07-20T02:09:43;4.83;;;2.87;;
2486;SDS011;1254;49.144;8.212;2023-07-20T02:12:11;2.27;;;2.17;;
2486;SDS011;1254;49.144;8.212;2023-07-20T02:14:40;3.10;;;2.50;;
2486;SDS011;1254;49.144;8.212;2023-07-20T02:17:08;3.37;;;2.20;;
2486;SDS011;1254;49.144;8.212;2023-07-20T02:19:37;2.80;;;2.60;;
2486;SDS011;1254;49.144;8.212;2023-07-20T02:22:06;2.60;;;2.37;;
2486;SDS011;1254;49.144;8.212;2023-07-20T02:24:35;5.87;;;2.47;;
2486;SDS011;1254;49.144;8.212;2023-07-20T02:27:04;3.97;;;3.03;;
2486;SDS011;1254;49.144;8.212;2023-07-20T02:29:33;7.07;;;2.97;;
2486;SDS011;1254;49.144;8.212;2023-07-20T02:32:02;7.13;;;3.20;;
2486;SDS011;1254;49.144;8.212;2023-07-20T02:34:30;3.60;;;3.30;;
2486;SDS011;1254;49.144;8.212;2023-07-20T02:36:58;3.23;;;2.63;;
2486;SDS011;1254;49.144;8.212;2023-07-20T02:39:27;3.70;;;2.80;;
2486;SDS011;1254;49.144;8.212;2023-07-20T02:41:56;3.07;;;2.80;;
2486;SDS011;1254;49.144;8.212;2023-07-20T02:44:24;8.23;;;2.77;;
2486;SDS011;1254;49.144;8.212;2023-07-20T02:46:53;4.83;;;2.57;;
2486;SDS011;1254;49.144;8.212;2023-07-20T02:49:21;4.00;;;2.70;;
2486;SDS011;1254;49.144;8.212;2023-07-20T02:51:49;3.73;;;2.37;;
2486;SDS011;1254;49.144;8.212;2023-07-20T02:54:17;4.67;;;3.00;;
2486;SDS011;1254;49.144;8.212;2023-07-20T02:56:45;4.17;;;2.83;;
2486;SDS011;1254;49.144;8.212;2023-07-20T02:59:15;3.93;;;2.60;;
2486;SDS011;1254;49.144;8.212;2023-07-20T03:01:43;3.93;;;2.70;;
2486;SDS011;1254;49.144;8.212;2023-07-20T03:04:11;2.40;;;2.30;;
2486;SDS011;1254;49.144;8.212;2023-07-20T03:06:40;2.27;;;2.17;;
2486;SDS011;1254;49.144;8.212;2023-07-20T03:09:10;3.23;;;2.77;;
2486;SDS011;1254;49.144;8.212;2023-07-20T03:11:38;2.93;;;2.63;;
2486;SDS011;1254;49.144;8.212;2023-07-20T03:14:06;2.47;;;2.27;;
2486;SDS011;1254;49.144;8.212;2023-07-20T03:16:38;2.20;;;2.10;;
2486;SDS011;1254;49.144;8.212;2023-07-20T03:19:07;2.50;;;2.40;;
2486;SDS011;1254;49.144;8.212;2023-07-20T03:21:35;4.67;;;2.70;;
2486;SDS011;1254;49.144;8.212;2023-07-20T03:24:07;5.37;;;3.00;;
2486;SDS011;1254;49.144;8.212;2023-07-20T03:26:35;5.13;;;2.80;;
2486;SDS011;1254;49.144;8.212;2023-07-20T03:29:05;3.97;;;2.50;;
2486;SDS011;1254;49.144;8.212;2023-07-20T03:31:34;8.03;;;3.07;;
2486;SDS011;1254;49.144;8.212;2023-07-20T03:34:04;5.20;;;2.80;;
2486;SDS011;1254;49.144;8.212;2023-07-20T03:36:32;3.27;;;2.80;;
2486;SDS011;1254;49.144;8.212;2023-07-20T03:39:00;7.17;;;2.60;;
2486;SDS011;1254;49.144;8.212;2023-07-20T03:41:29;13.53;;;2.57;;
2486;SDS011;1254;49.144;8.212;2023-07-20T03:43:57;6.60;;;3.03;;
2486;SDS011;1254;49.144;8.212;2023-07-20T03:46:25;2.87;;;2.67;;
2486;SDS011;1254;49.144;8.212;2023-07-20T03:48:53;6.50;;;2.30;;
2486;SDS011;1254;49.144;8.212;2023-07-20T03:51:23;2.90;;;2.60;;
2486;SDS011;1254;49.144;8.212;2023-07-20T03:53:51;3.13;;;2.83;;
2486;SDS011;1254;49.144;8.212;2023-07-20T03:56:19;4.63;;;2.70;;
2486;SDS011;1254;49.144;8.212;2023-07-20T03:58:47;4.07;;;2.63;;
2486;SDS011;1254;49.144;8.212;2023-07-20T04:01:16;3.57;;;2.30;;
2486;SDS011;1254;49.144;8.212;2023-07-20T04:03:44;3.20;;;2.00;;
2486;SDS011;1254;49.144;8.212;2023-07-20T04:06:13;3.23;;;2.53;;
2486;SDS011;1254;49.144;8.212;2023-07-20T04:08:44;4.33;;;3.20;;
2486;SDS011;1254;49.144;8.212;2023-07-20T04:11:13;2.47;;;2.30;;
2486;SDS011;1254;49.144;8.212;2023-07-20T04:13:41;2.63;;;2.43;;
2486;SDS011;1254;49.144;8.212;2023-07-20T04:16:09;2.93;;;2.73;;
2486;SDS011;1254;49.144;8.212;2023-07-20T04:18:38;2.83;;;2.63;;
2486;SDS011;1254;49.144;8.212;2023-07-20T04:21:07;4.03;;;2.57;;
2486;SDS011;1254;49.144;8.212;2023-07-20T04:23:35;8.00;;;3.30;;
2486;SDS011;1254;49.144;8.212;2023-07-20T04:26:05;7.93;;;4.00;;
2486;SDS011;1254;49.144;8.212;2023-07-20T04:28:33;13.03;;;4.70;;
2486;SDS011;1254;49.144;8.212;2023-07-20T04:31:11;3.47;;;3.17;;
2486;SDS011;1254;49.144;8.212;2023-07-20T04:33:39;5.53;;;3.30;;
2486;SDS011;1254;49.144;8.212;2023-07-20T04:36:08;9.20;;;3.40;;
2486;SDS011;1254;49.144;8.212;2023-07-20T04:38:36;4.30;;;3.43;;
2486;SDS011;1254;49.144;8.212;2023-07-20T04:41:19;4.47;;;3.00;;
2486;SDS011;1254;49.144;8.212;2023-07-20T04:43:49;3.30;;;3.10;;
2486;SDS011;1254;49.144;8.212;2023-07-20T04:46:24;5.30;;;3.27;;
2486;SDS011;1254;49.144;8.212;2023-07-20T04:48:53;3.03;;;2.50;;
2486;SDS011;1254;49.144;8.212;2023-07-20T04:51:22;3.10;;;2.80;;
2486;SDS011;1254;49.144;8.212;2023-07-20T04:53:54;3.47;;;2.70;;
2486;SDS011;1254;49.144;8.212;2023-07-20T04:56:24;3.37;;;3.10;;
2486;SDS011;1254;49.144;8.212;2023-07-20T04:58:54;4.53;;;2.93;;
2486;SDS011;1254;49.144;8.212;2023-07-20T05:01:23;3.83;;;2.60;;
2486;SDS011;1254;49.144;8.212;2023-07-20T05:03:52;3.83;;;3.23;;
2486;SDS011;1254;49.144;8.212;2023-07-20T05:06:21;4.13;;;3.00;;
2486;SDS011;1254;49.144;8.212;2023-07-20T05:08:49;3.23;;;2.93;;
2486;SDS011;1254;49.144;8.212;2023-07-20T05:11:18;3.43;;;3.13;;
2486;SDS011;1254;49.144;8.212;2023-07-20T05:13:47;3.10;;;2.90;;
2486;SDS011;1254;49.144;8.212;2023-07-20T05:16:15;2.90;;;2.70;;
2486;SDS011;1254;49.144;8.212;2023-07-20T05:18:44;5.07;;;2.40;;
2486;SDS011;1254;49.144;8.212;2023-07-20T05:21:13;5.73;;;3.03;;
2486;SDS011;1254;49.144;8.212;2023-07-20T05:23:41;3.63;;;3.10;;
2486;SDS011;1254;49.144;8.212;2023-07-20T05:26:12;4.03;;;3.43;;
2486;SDS011;1254;49.144;8.212;2023-07-20T05:28:40;2.80;;;2.60;;
2486;SDS011;1254;49.144;8.212;2023-07-20T05:31:09;3.33;;;3.03;;
2486;SDS011;1254;49.144;8.212;2023-07-20T05:33:38;3.53;;;2.87;;
2486;SDS011;1254;49.144;8.212;2023-07-20T05:36:06;6.43;;;3.33;;
2486;SDS011;1254;49.144;8.212;2023-07-20T05:38:51;5.07;;;2.90;;
2486;SDS011;1254;49.144;8.212;2023-07-20T05:41:19;3.30;;;2.60;;
2486;SDS011;1254;49.144;8.212;2023-07-20T05:43:48;2.90;;;2.60;;
2486;SDS011;1254;49.144;8.212;2023-07-20T05:46:18;7.10;;;2.80;;
2486;SDS011;1254;49.144;8.212;2023-07-20T05:48:46;3.10;;;2.90;;
2486;SDS011;1254;49.144;8.212;2023-07-20T05:51:14;2.63;;;2.43;;
2486;SDS011;1254;49.144;8.212;2023-07-20T05:53:42;2.90;;;2.70;;
2486;SDS011;1254;49.144;8.212;2023-07-20T05:56:10;3.07;;;2.73;;
2486;SDS011;1254;49.144;8.212;2023-07-20T05:58:39;4.40;;;2.63;;
2486;SDS011;1254;49.144;8.212;2023-07-20T06:01:07;5.60;;;2.70;;
2486;SDS011;1254;49.144;8.212;2023-07-20T06:03:36;4.87;;;2.60;;
2486;SDS011;1254;49.144;8.212;2023-07-20T06:06:05;3.67;;;3.23;;
2486;SDS011;1254;49.144;8.212;2023-07-20T06:08:35;3.33;;;3.10;;
2486;SDS011;1254;49.144;8.212;2023-07-20T06:11:03;2.90;;;2.70;;
2486;SDS011;1254;49.144;8.212;2023-07-20T06:13:31;6.70;;;2.80;;
2486;SDS011;1254;49.144;8.212;2023-07-20T06:15:59;6.27;;;3.37;;
2486;SDS011;1254;49.144;8.212;2023-07-20T06:18:29;10.17;;;4.37;;
2486;SDS011;1254;49.144;8.212;2023-07-20T06:20:59;4.80;;;3.00;;
2486;SDS011;1254;49.144;8.212;2023-07-20T06:23:27;5.63;;;3.30;;
2486;SDS011;1254;49.144;8.212;2023-07-20T06:25:55;5.03;;;3.13;;
2486;SDS011;1254;49.144;8.212;2023-07-20T06:28:23;4.03;;;3.07;;
2486;SDS011;1254;49.144;8.212;2023-07-20T06:30:52;2.90;;;2.70;;
2486;SDS011;1254;49.144;8.212;2023-07-20T06:33:20;5.07;;;2.90;;
2486;SDS011;1254;49.144;8.212;2023-07-20T06:35:48;5.93;;;2.57;;
2486;SDS011;1254;49.144;8.212;2023-07-20T06:38:18;4.57;;;2.67;;
2486;SDS011;1254;49.144;8.212;2023-07-20T06:40:46;3.00;;;2.80;;
2486;SDS011;1254;49.144;8.212;2023-07-20T06:43:14;3.40;;;2.80;;
2486;SDS011;1254;49.144;8.212;2023-07-20T06:45:42;6.20;;;2.93;;
2486;SDS011;1254;49.144;8.212;2023-07-20T06:48:11;3.23;;;2.93;;
2486;SDS011;1254;49.144;8.212;2023-07-20T06:50:39;4.20;;;3.03;;
2486;SDS011;1254;49.144;8.212;2023-07-20T06:53:07;3.80;;;2.90;;
2486;SDS011;1254;49.144;8.212;2023-07-20T06:55:36;5.43;;;3.20;;
2486;SDS011;1254;49.144;8.212;2023-07-20T06:58:05;7.00;;;2.97;;
2486;SDS011;1254;49.144;8.212;2023-07-20T07:00:33;5.93;;;3.73;;
2486;SDS011;1254;49.144;8.212;2023-07-20T07:03:01;5.30;;;3.40;;
2486;SDS011;1254;49.144;8.212;2023-07-20T07:05:30;5.43;;;3.10;;
2486;SDS011;1254;49.144;8.212;2023-07-20T07:07:58;4.50;;;3.47;;
2486;SDS011;1254;49.144;8.212;2023-07-20T07:10:29;7.30;;;3.30;;
2486;SDS011;1254;49.144;8.212;2023-07-20T07:12:58;5.13;;;3.07;;
2486;SDS011;1254;49.144;8.212;2023-07-20T07:15:27;3.07;;;2.80;;
2486;SDS011;1254;49.144;8.212;2023-07-20T07:17:55;3.87;;;3.17;;
2486;SDS011;1254;49.144;8.212;2023-07-20T07:20:25;2.80;;;2.60;;
2486;SDS011;1254;49.144;8.212;2023-07-20T07:22:53;4.67;;;3.20;;
2486;SDS011;1254;49.144;8.212;2023-07-20T07:25:23;2.80;;;2.57;;
2486;SDS011;1254;49.144;8.212;2023-07-20T07:27:52;11.03;;;3.20;;
2486;SDS011;1254;49.144;8.212;2023-07-20T07:30:22;7.90;;;3.27;;
2486;SDS011;1254;49.144;8.212;2023-07-20T07:32:51;5.73;;;3.33;;
2486;SDS011;1254;49.144;8.212;2023-07-20T07:35:19;3.60;;;3.30;;
2486;SDS011;1254;49.144;8.212;2023-07-20T07:37:47;3.70;;;3.37;;
2486;SDS011;1254;49.144;8.212;2023-07-20T07:40:15;2.97;;;2.77;;
2486;SDS011;1254;49.144;8.212;2023-07-20T07:42:44;3.50;;;3.20;;
2486;SDS011;1254;49.144;8.212;2023-07-20T07:45:13;4.17;;;3.87;;
2486;SDS011;1254;49.144;8.212;2023-07-20T07:47:44;4.10;;;2.83;;
2486;SDS011;1254;49.144;8.212;2023-07-20T07:50:12;3.40;;;3.20;;
2486;SDS011;1254;49.144;8.212;2023-07-20T07:52:40;4.50;;;3.13;;
2486;SDS011;1254;49.144;8.212;2023-07-20T07:55:08;4.97;;;2.73;;
2486;SDS011;1254;49.144;8.212;2023-07-20T07:57:37;3.33;;;3.13;;
2486;SDS011;1254;49.144;8.212;2023-07-20T08:00:05;3.60;;;3.00;;
2486;SDS011;1254;49.144;8.212;2023-07-20T08:02:37;7.27;;;4.20;;
2486;SDS011;1254;49.144;8.212;2023-07-20T08:05:07;4.50;;;2.87;;
2486;SDS011;1254;49.144;8.212;2023-07-20T08:07:35;3.80;;;3.30;;
2486;SDS011;1254;49.144;8.212;2023-07-20T08:10:04;3.47;;;2.80;;
2486;SDS011;1254;49.144;8.212;2023-07-20T08:12:32;3.53;;;2.97;;
2486;SDS011;1254;49.144;8.212;2023-07-20T08:15:00;4.30;;;3.10;;
2486;SDS011;1254;49.144;8.212;2023-07-20T08:17:30;5.83;;;3.70;;
2486;SDS011;1254;49.144;8.212;2023-07-20T08:19:58;3.77;;;3.47;;
2486;SDS011;1254;49.144;8.212;2023-07-20T08:22:28;3.40;;;2.70;;
2486;SDS011;1254;49.144;8.212;2023-07-20T08:24:56;3.13;;;2.93;;
2486;SDS011;1254;49.144;8.212;2023-07-20T08:27:25;6.77;;;3.20;;
2486;SDS011;1254;49.144;8.212;2023-07-20T08:29:53;5.63;;;3.20;;
2486;SDS011;1254;49.144;8.212;2023-07-20T08:32:21;3.10;;;2.90;;
2486;SDS011;1254;49.144;8.212;2023-07-20T08:34:49;3.53;;;3.13;;
2486;SDS011;1254;49.144;8.212;2023-07-20T08:37:17;2.73;;;2.53;;
2486;SDS011;1254;49.144;8.212;2023-07-20T08:39:47;5.53;;;2.97;;
2486;SDS011;1254;49.144;8.212;2023-07-20T08:42:15;3.27;;;3.07;;
2486;SDS011;1254;49.144;8.212;2023-07-20T08:44:45;3.40;;;3.20;;
2486;SDS011;1254;49.144;8.212;2023-07-20T08:47:16;3.93;;;3.53;;
2486;SDS011;1254;49.144;8.212;2023-07-20T08:49:45;3.67;;;3.40;;
2486;SDS011;1254;49.144;8.212;2023-07-20T08:52:16;3.60;;;3.33;;
2486;SDS011;1254;49.144;8.212;2023-07-20T08:54:44;4.30;;;2.90;;
2486;SDS011;1254;49.144;8.212;2023-07-20T08:57:14;3.73;;;3.30;;
2486;SDS011;1254;49.144;8.212;2023-07-20T08:59:42;3.73;;;3.53;;
2486;SDS011;1254;49.144;8.212;2023-07-20T09:02:12;3.77;;;3.47;;
2486;SDS011;1254;49.144;8.212;2023-07-20T09:04:44;6.50;;;3.00;;
2486;SDS011;1254;49.144;8.212;2023-07-20T09:07:12;3.47;;;3.20;;
2486;SDS011;1254;49.144;8.212;2023-07-20T09:09:41;3.80;;;3.30;;
2486;SDS011;1254;49.144;8.212;2023-07-20T09:12:14;3.43;;;3.23;;
2486;SDS011;1254;49.144;8.212;2023-07-20T09:14:43;3.60;;;3.30;;
2486;SDS011;1254;49.144;8.212;2023-07-20T09:17:14;3.70;;;3.50;;
2486;SDS011;1254;49.144;8.212;2023-07-20T09:19:46;3.93;;;3.63;;
2486;SDS011;1254;49.144;8.212;2023-07-20T09:22:14;3.60;;;3.33;;
2486;SDS011;1254;49.144;8.212;2023-07-20T09:24:43;5.40;;;3.20;;
2486;SDS011;1254;49.144;8.212;2023-07-20T09:27:12;3.73;;;3.37;;
2486;SDS011;1254;49.144;8.212;2023-07-20T09:29:50;3.57;;;3.27;;
2486;SDS011;1254;49.144;8.212;2023-07-20T09:32:19;4.27;;;3.97;;
2486;SDS011;1254;49.144;8.212;2023-07-20T09:34:49;3.57;;;3.37;;
2486;SDS011;1254;49.144;8.212;2023-07-20T09:37:19;5.17;;;3.50;;
2486;SDS011;1254;49.144;8.212;2023-07-20T09:39:48;9.73;;;3.37;;
2486;SDS011;1254;49.144;8.212;2023-07-20T09:42:19;5.57;;;5.17;;
2486;SDS011;1254;49.144;8.212;2023-07-20T09:44:52;4.83;;;4.43;;
2486;SDS011;1254;49.144;8.212;2023-07-20T09:47:23;3.90;;;3.47;;
2486;SDS011;1254;49.144;8.212;2023-07-20T09:49:57;3.47;;;3.23;;
2486;SDS011;1254;49.144;8.212;2023-07-20T09:52:26;5.03;;;4.07;;
2486;SDS011;1254;49.144;8.212;2023-07-20T09:54:55;3.70;;;3.30;;
2486;SDS011;1254;49.144;8.212;2023-07-20T09:57:23;3.37;;;3.17;;
2486;SDS011;1254;49.144;8.212;2023-07-20T09:59:53;3.87;;;3.63;;
2486;SDS011;1254;49.144;8.212;2023-07-20T10:02:23;3.40;;;3.20;;
2486;SDS011;1254;49.144;8.212;2023-07-20T10:04:53;3.30;;;3.00;;
2486;SDS011;1254;49.144;8.212;2023-07-20T10:07:22;4.30;;;3.57;;
2486;SDS011;1254;49.144;8.212;2023-07-20T10:09:51;5.40;;;4.13;;
2486;SDS011;1254;49.144;8.212;2023-07-20T10:12:21;3.63;;;3.43;;
2486;SDS011;1254;49.144;8.212;2023-07-20T10:14:52;3.10;;;2.90;;
2486;SDS011;1254;49.144;8.212;2023-07-20T10:17:24;8.63;;;6.60;;
2486;SDS011;1254;49.144;8.212;2023-07-20T10:19:54;3.70;;;3.50;;
2486;SDS011;1254;49.144;8.212;2023-07-20T10:22:24;3.80;;;3.37;;
2486;SDS011;1254;49.144;8.212;2023-07-20T10:24:53;3.33;;;3.13;;
2486;SDS011;1254;49.144;8.212;2023-07-20T10:27:24;3.37;;;3.17;;
2486;SDS011;1254;49.144;8.212;2023-07-20T10:29:53;3.20;;;3.03;;
2486;SDS011;1254;49.144;8.212;2023-07-20T10:32:23;3.30;;;3.10;;
2486;SDS011;1254;49.144;8.212;2023-07-20T10:34:52;3.50;;;3.20;;
2486;SDS011;1254;49.144;8.212;2023-07-20T10:37:45;3.50;;;3.40;;
2486;SDS011;1254;49.144;8.212;2023-07-20T10:40:23;3.57;;;3.40;;
2486;SDS011;1254;49.144;8.212;2023-07-20T10:42:55;3.50;;;3.20;;
2486;SDS011;1254;49.144;8.212;2023-07-20T10:45:33;3.43;;;3.23;;
2486;SDS011;1254;49.144;8.212;2023-07-20T10:48:06;3.00;;;2.90;;
2486;SDS011;1254;49.144;8.212;2023-07-20T10:50:35;3.60;;;3.40;;
2486;SDS011;1254;49.144;8.212;2023-07-20T10:53:04;4.00;;;3.53;;
2486;SDS011;1254;49.144;8.212;2023-07-20T10:55:32;3.53;;;3.23;;
2486;SDS011;1254;49.144;8.212;2023-07-20T10:58:06;3.60;;;3.50;;
2486;SDS011;1254;49.144;8.212;2023-07-20T11:00:34;4.30;;;3.90;;
2486;SDS011;1254;49.144;8.212;2023-07-20T11:03:02;3.60;;;3.40;;
2486;SDS011;1254;49.144;8.212;2023-07-20T11:05:36;3.20;;;3.10;;
2486;SDS011;1254;49.144;8.212;2023-07-20T11:08:05;3.30;;;3.20;;
2486;SDS011;1254;49.144;8.212;2023-07-20T11:10:33;7.53;;;4.10;;
2486;SDS011;1254;49.144;8.212;2023-07-20T11:13:21;3.57;;;3.47;;
2486;SDS011;1254;49.144;8.212;2023-07-20T11:16:03;3.47;;;3.27;;
2486;SDS011;1254;49.144;8.212;2023-07-20T11:18:35;3.70;;;3.40;;
2486;SDS011;1254;49.144;8.212;2023-07-20T11:21:08;4.20;;;3.50;;
2486;SDS011;1254;49.144;8.212;2023-07-20T11:23:37;3.87;;;3.50;;
2486;SDS011;1254;49.144;8.212;2023-07-20T11:26:06;3.70;;;3.50;;
2486;SDS011;1254;49.144;8.212;2023-07-20T11:28:36;4.00;;;3.70;;
2486;SDS011;1254;49.144;8.212;2023-07-20T11:31:04;3.50;;;3.30;;
2486;SDS011;1254;49.144;8.212;2023-07-20T11:33:32;3.43;;;3.23;;
2486;SDS011;1254;49.144;8.212;2023-07-20T11:36:00;3.70;;;3.53;;
2486;SDS011;1254;49.144;8.212;2023-07-20T11:38:30;3.70;;;3.43;;
2486;SDS011;1254;49.144;8.212;2023-07-20T11:40:58;6.00;;;3.43;;
2486;SDS011;1254;49.144;8.212;2023-07-20T11:43:26;4.13;;;3.23;;
2486;SDS011;1254;49.144;8.212;2023-07-20T11:45:55;3.73;;;3.63;;
2486;SDS011;1254;49.144;8.212;2023-07-20T11:48:23;4.80;;;4.40;;
2486;SDS011;1254;49.144;8.212;2023-07-20T11:50:51;3.87;;;3.67;;
2486;SDS011;1254;49.144;8.212;2023-07-20T11:53:19;3.80;;;3.60;;
2486;SDS011;1254;49.144;8.212;2023-07-20T11:55:49;5.40;;;3.80;;
2486;SDS011;1254;49.144;8.212;2023-07-20T11:58:17;4.20;;;3.90;;
2486;SDS011;1254;49.144;8.212;2023-07-20T12:00:47;3.70;;;3.60;;
2486;SDS011;1254;49.144;8.212;2023-07-20T12:03:15;4.17;;;3.97;;
2486;SDS011;1254;49.144;8.212;2023-07-20T12:05:44;4.03;;;3.83;;
2486;SDS011;1254;49.144;8.212;2023-07-20T12:08:12;3.80;;;3.60;;
2486;SDS011;1254;49.144;8.212;2023-07-20T12:10:40;4.50;;;4.20;;
2486;SDS011;1254;49.144;8.212;2023-07-20T12:13:11;3.93;;;3.70;;
2486;SDS011;1254;49.144;8.212;2023-07-20T12:15:39;3.90;;;3.70;;
2486;SDS011;1254;49.144;8.212;2023-07-20T12:18:08;4.03;;;3.70;;
2486;SDS011;1254;49.144;8.212;2023-07-20T12:20:36;4.27;;;4.00;;
2486;SDS011;1254;49.144;8.212;2023-07-20T12:23:08;3.70;;;3.50;;
2486;SDS011;1254;49.144;8.212;2023-07-20T12:25:37;4.00;;;3.80;;
2486;SDS011;1254;49.144;8.212;2023-07-20T12:28:06;3.83;;;3.63;;
2486;SDS011;1254;49.144;8.212;2023-07-20T12:30:36;3.70;;;3.50;;
2486;SDS011;1254;49.144;8.212;2023-07-20T12:33:05;7.63;;;3.80;;
2486;SDS011;1254;49.144;8.212;2023-07-20T12:35:33;4.07;;;3.87;;
2486;SDS011;1254;49.144;8.212;2023-07-20T12:38:01;3.87;;;3.70;;
2486;SDS011;1254;49.144;8.212;2023-07-20T12:40:29;3.77;;;3.57;;
2486;SDS011;1254;49.144;8.212;2023-07-20T12:42:57;4.20;;;3.87;;
2486;SDS011;1254;49.144;8.212;2023-07-20T12:45:26;3.73;;;3.63;;
2486;SDS011;1254;49.144;8.212;2023-07-20T12:47:56;4.20;;;3.90;;
2486;SDS011;1254;49.144;8.212;2023-07-20T12:50:24;4.03;;;3.90;;
2486;SDS011;1254;49.144;8.212;2023-07-20T12:52:52;4.40;;;4.20;;
2486;SDS011;1254;49.144;8.212;2023-07-20T12:55:20;3.50;;;3.40;;
2486;SDS011;1254;49.144;8.212;2023-07-20T12:57:49;4.27;;;4.07;;
2486;SDS011;1254;49.144;8.212;2023-07-20T13:00:17;4.60;;;4.40;;
2486;SDS011;1254;49.144;8.212;2023-07-20T13:02:46;5.63;;;3.70;;
2486;SDS011;1254;49.144;8.212;2023-07-20T13:05:15;3.80;;;3.70;;
2486;SDS011;1254;49.144;8.212;2023-07-20T13:07:43;4.00;;;3.90;;
2486;SDS011;1254;49.144;8.212;2023-07-20T13:10:12;4.17;;;3.87;;
2486;SDS011;1254;49.144;8.212;2023-07-20T13:12:40;4.30;;;4.00;;
2486;SDS011;1254;49.144;8.212;2023-07-20T13:15:09;3.60;;;3.50;;
2486;SDS011;1254;49.144;8.212;2023-07-20T13:17:38;4.00;;;3.90;;
2486;SDS011;1254;49.144;8.212;2023-07-20T13:20:07;5.90;;;3.80;;
2486;SDS011;1254;49.144;8.212;2023-07-20T13:22:38;4.27;;;4.07;;
2486;SDS011;1254;49.144;8.212;2023-07-20T13:25:06;3.93;;;3.83;;
2486;SDS011;1254;49.144;8.212;2023-07-20T13:27:35;3.97;;;3.77;;
2486;SDS011;1254;49.144;8.212;2023-07-20T13:30:04;4.50;;;4.20;;
2486;SDS011;1254;49.144;8.212;2023-07-20T13:32:35;4.20;;;4.00;;
2486;SDS011;1254;49.144;8.212;2023-07-20T13:35:04;4.77;;;4.47;;
2486;SDS011;1254;49.144;8.212;2023-07-20T13:37:32;4.27;;;4.07;;
2486;SDS011;1254;49.144;8.212;2023-07-20T13:40:02;4.60;;;3.40;;
2486;SDS011;1254;49.144;8.212;2023-07-20T13:42:31;3.90;;;3.80;;
2486;SDS011;1254;49.144;8.212;2023-07-20T13:44:59;4.00;;;3.70;;
2486;SDS011;1254;49.144;8.212;2023-07-20T13:47:27;3.80;;;3.70;;
2486;SDS011;1254;49.144;8.212;2023-07-20T13:49:56;4.07;;;3.87;;
2486;SDS011;1254;49.144;8.212;2023-07-20T13:52:24;5.00;;;4.60;;
2486;SDS011;1254;49.144;8.212;2023-07-20T13:54:52;4.60;;;4.40;;
2486;SDS011;1254;49.144;8.212;2023-07-20T13:57:22;4.20;;;4.00;;
2486;SDS011;1254;49.144;8.212;2023-07-20T13:59:50;4.33;;;4.13;;
2486;SDS011;1254;49.144;8.212;2023-07-20T14:02:18;4.00;;;3.80;;
2486;SDS011;1254;49.144;8.212;2023-07-20T14:04:46;3.97;;;3.80;;
2486;SDS011;1254;49.144;8.212;2023-07-20T14:07:15;5.03;;;4.73;;
2486;SDS011;1254;49.144;8.212;2023-07-20T14:09:43;3.90;;;3.70;;
2486;SDS011;1254;49.144;8.212;2023-07-20T14:12:11;4.17;;;3.87;;
2486;SDS011;1254;49.144;8.212;2023-07-20T14:14:41;3.87;;;3.77;;
2486;SDS011;1254;49.144;8.212;2023-07-20T14:17:17;3.77;;;3.67;;
2486;SDS011;1254;49.144;8.212;2023-07-20T14:20:04;3.60;;;3.40;;
2486;SDS011;1254;49.144;8.212;2023-07-20T14:22:34;4.37;;;3.93;;
2486;SDS011;1254;49.144;8.212;2023-07-20T14:25:03;3.83;;;3.63;;
2486;SDS011;1254;49.144;8.212;2023-07-20T14:27:31;4.10;;;3.90;;
2486;SDS011;1254;49.144;8.212;2023-07-20T14:30:01;4.10;;;3.90;;
2486;SDS011;1254;49.144;8.212;2023-07-20T14:32:29;4.07;;;3.77;;
2486;SDS011;1254;49.144;8.212;2023-07-20T14:34:59;3.90;;;3.70;;
2486;SDS011;1254;49.144;8.212;2023-07-20T14:37:29;3.97;;;3.87;;
2486;SDS011;1254;49.144;8.212;2023-07-20T14:39:57;4.60;;;4.00;;
2486;SDS011;1254;49.144;8.212;2023-07-20T14:42:25;4.23;;;3.97;;
2486;SDS011;1254;49.144;8.212;2023-07-20T14:44:53;3.73;;;3.63;;
2486;SDS011;1254;49.144;8.212;2023-07-20T14:47:23;3.90;;;3.70;;
2486;SDS011;1254;49.144;8.212;2023-07-20T14:49:51;4.20;;;3.90;;
2486;SDS011;1254;49.144;8.212;2023-07-20T14:52:19;4.10;;;3.90;;
2486;SDS011;1254;49.144;8.212;2023-07-20T14:54:48;3.80;;;3.70;;
2486;SDS011;1254;49.144;8.212;2023-07-20T14:57:16;4.40;;;4.10;;
2486;SDS011;1254;49.144;8.212;2023-07-20T14:59:44;4.03;;;3.90;;
2486;SDS011;1254;49.144;8.212;2023-07-20T15:02:13;4.03;;;3.83;;
2486;SDS011;1254;49.144;8.212;2023-07-20T15:04:46;3.83;;;3.73;;
2486;SDS011;1254;49.144;8.212;2023-07-20T15:07:15;3.50;;;3.40;;
2486;SDS011;1254;49.144;8.212;2023-07-20T15:09:44;4.13;;;3.93;;
2486;SDS011;1254;49.144;8.212;2023-07-20T15:12:12;4.13;;;3.93;;
2486;SDS011;1254;49.144;8.212;2023-07-20T15:14:41;4.20;;;3.80;;
2486;SDS011;1254;49.144;8.212;2023-07-20T15:17:10;3.80;;;3.70;;
2486;SDS011;1254;49.144;8.212;2023-07-20T15:19:38;3.70;;;3.60;;
2486;SDS011;1254;49.144;8.212;2023-07-20T15:22:08;3.90;;;3.70;;
2486;SDS011;1254;49.144;8.212;2023-07-20T15:24:36;3.90;;;3.70;;
2486;SDS011;1254;49.144;8.212;2023-07-20T15:27:05;3.93;;;3.73;;
2486;SDS011;1254;49.144;8.212;2023-07-20T15:29:34;4.27;;;3.97;;
2486;SDS011;1254;49.144;8.212;2023-07-20T15:32:03;4.10;;;3.90;;